createdAt,value
2018-07-04T00:00:57.779Z,68.33
2018-07-04T00:01:58.346Z,69.29
2018-07-04T00:02:58.909Z,69.58
2018-07-04T00:03:59.512Z,69.87
2018-07-04T00:05:00.079Z,69.68
2018-07-04T00:06:00.665Z,69.20
2018-07-04T00:07:01.230Z,69.87
2018-07-04T00:08:01.796Z,69.20
2018-07-04T00:09:02.360Z,69.10
2018-07-04T00:10:02.950Z,69.00
2018-07-04T00:11:03.512Z,69.35
2018-07-04T00:12:04.078Z,69.29
2018-07-04T00:13:04.649Z,69.87
2018-07-04T00:14:05.232Z,69.97
2018-07-04T00:15:05.803Z,70.45
2018-07-04T00:16:06.365Z,70.45
2018-07-04T00:17:06.930Z,69.45
2018-07-04T00:18:07.517Z,67.91
2018-07-04T00:19:08.082Z,68.87
2018-07-04T00:20:08.646Z,69.07
2018-07-04T00:21:09.211Z,69.35
2018-07-04T00:22:09.798Z,68.29
2018-07-04T00:23:10.363Z,68.49
2018-07-04T00:24:10.933Z,68.97
2018-07-04T00:25:11.500Z,69.45
2018-07-04T00:26:12.063Z,68.87
2018-07-04T00:27:12.628Z,68.19
2018-07-04T00:28:13.198Z,67.71
2018-07-04T00:29:13.746Z,67.62
2018-07-04T00:30:14.313Z,68.59
2018-07-04T00:31:14.854Z,69.26
2018-07-04T00:32:15.405Z,69.74
2018-07-04T00:33:15.962Z,69.64
2018-07-04T00:34:16.519Z,69.74
2018-07-04T00:35:17.068Z,69.55
2018-07-04T00:36:17.622Z,69.23
2018-07-04T00:37:18.178Z,68.93
2018-07-04T00:38:18.729Z,69.42
2018-07-04T00:39:19.282Z,69.26
2018-07-04T00:40:19.835Z,68.49
2018-07-04T00:41:20.381Z,67.30
2018-07-04T00:42:20.930Z,67.23
2018-07-04T00:43:21.482Z,68.45
2018-07-04T00:44:22.033Z,68.45
2018-07-04T00:45:22.585Z,68.45
2018-07-04T00:46:23.140Z,67.88
2018-07-04T00:47:23.693Z,68.07
2018-07-04T00:48:24.243Z,68.26
2018-07-04T00:49:24.796Z,68.35
2018-07-04T00:50:25.350Z,67.68
2018-07-04T00:51:25.903Z,67.97
2018-07-04T00:52:26.454Z,67.30
2018-07-04T00:53:27.007Z,66.72
2018-07-04T00:54:27.560Z,66.62
2018-07-04T00:55:28.117Z,68.45
2018-07-04T00:56:28.663Z,67.97
2018-07-04T00:57:29.214Z,67.10
2018-07-04T00:58:29.788Z,66.62
2018-07-04T00:59:30.335Z,67.36
2018-07-04T01:00:30.875Z,68.13
2018-07-04T01:01:31.425Z,67.74
2018-07-04T01:02:31.978Z,66.49
2018-07-04T01:03:32.530Z,66.49
2018-07-04T01:04:33.084Z,67.74
2018-07-04T01:05:33.675Z,67.65
2018-07-04T01:06:34.201Z,68.80
2018-07-04T01:07:34.753Z,68.52
2018-07-04T01:08:35.305Z,69.87
2018-07-04T01:09:35.855Z,69.87
2018-07-04T01:10:36.409Z,68.99
2018-07-04T01:11:36.966Z,68.32
2018-07-04T01:12:37.517Z,67.94
2018-07-04T01:13:38.075Z,68.61
2018-07-04T01:14:38.636Z,69.77
2018-07-04T01:15:39.188Z,69.67
2018-07-04T01:16:39.740Z,68.96
2018-07-04T01:17:40.289Z,68.96
2018-07-04T01:18:40.840Z,68.68
2018-07-04T01:19:41.394Z,68.68
2018-07-04T01:20:41.945Z,68.96
2018-07-04T01:21:42.495Z,68.68
2018-07-04T01:22:43.047Z,69.25
2018-07-04T01:23:43.603Z,69.73
2018-07-04T01:24:44.157Z,69.64
2018-07-04T01:25:44.708Z,70.02
2018-07-04T01:26:45.262Z,70.41
2018-07-04T01:27:45.812Z,70.09
2018-07-04T01:28:46.366Z,70.76
2018-07-04T01:29:46.920Z,71.34
2018-07-04T01:30:47.468Z,71.04
2018-07-04T01:31:48.020Z,70.86
2018-07-04T01:32:48.576Z,71.24
2018-07-04T01:33:49.130Z,71.91
2018-07-04T01:34:49.681Z,72.11
2018-07-04T01:35:50.230Z,72.07
2018-07-04T01:36:50.777Z,72.45
2018-07-04T01:37:51.332Z,72.84
2018-07-04T01:38:51.879Z,72.84
2018-07-04T01:39:52.429Z,73.51
2018-07-04T01:40:52.978Z,73.71
2018-07-04T01:41:53.527Z,72.94
2018-07-04T01:42:54.079Z,73.42
2018-07-04T01:43:54.630Z,72.65
2018-07-04T01:44:55.186Z,72.84
2018-07-04T01:45:55.741Z,72.84
2018-07-04T01:46:56.285Z,73.42
2018-07-04T01:47:56.837Z,73.51
2018-07-04T01:48:57.389Z,73.80
2018-07-04T01:49:57.941Z,73.22
2018-07-04T01:50:58.490Z,72.84
2018-07-04T01:51:59.043Z,72.80
2018-07-04T01:52:59.592Z,73.99
2018-07-04T01:54:00.139Z,75.98
2018-07-04T01:55:00.690Z,77.13
2018-07-04T01:56:01.287Z,77.33
2018-07-04T01:57:01.799Z,78.19
2018-07-04T01:58:02.349Z,77.90
2018-07-04T01:59:02.894Z,77.23
2018-07-04T02:00:03.444Z,77.13
2018-07-04T02:01:03.992Z,76.36
2018-07-04T02:02:04.569Z,76.17
2018-07-04T02:03:05.156Z,75.79
2018-07-04T02:04:05.663Z,76.26
2018-07-04T02:05:06.212Z,75.31
2018-07-04T02:06:06.761Z,74.54
2018-07-04T02:07:07.316Z,74.25
2018-07-04T02:08:07.869Z,73.67
2018-07-04T02:09:08.422Z,74.15
2018-07-04T02:10:08.970Z,74.02
2018-07-04T02:11:09.518Z,74.05
2018-07-04T02:12:10.070Z,73.92
2018-07-04T02:13:10.615Z,75.56
2018-07-04T02:14:11.164Z,76.61
2018-07-04T02:15:11.715Z,77.09
2018-07-04T02:16:12.266Z,77.96
2018-07-04T02:17:12.819Z,77.29
2018-07-04T02:18:13.368Z,77.29
2018-07-04T02:19:13.920Z,76.23
2018-07-04T02:20:14.468Z,76.04
2018-07-04T02:21:15.023Z,75.75
2018-07-04T02:22:15.571Z,75.32
2018-07-04T02:23:16.127Z,75.42
2018-07-04T02:24:16.685Z,75.81
2018-07-04T02:25:17.233Z,76.09
2018-07-04T02:26:17.787Z,75.90
2018-07-04T02:27:18.337Z,75.71
2018-07-04T02:28:18.887Z,75.90
2018-07-04T02:29:19.434Z,75.90
2018-07-04T02:30:19.985Z,75.81
2018-07-04T02:31:20.537Z,75.71
2018-07-04T02:32:21.089Z,76.57
2018-07-04T02:33:21.639Z,76.09
2018-07-04T02:34:22.195Z,76.29
2018-07-04T02:35:22.743Z,76.48
2018-07-04T02:36:23.295Z,76.48
2018-07-04T02:37:23.849Z,77.06
2018-07-04T02:38:24.395Z,76.77
2018-07-04T02:39:24.958Z,77.59
2018-07-04T02:40:25.499Z,77.50
2018-07-04T02:41:26.097Z,77.31
2018-07-04T02:42:26.650Z,77.11
2018-07-04T02:43:27.199Z,77.44
2018-07-04T02:44:27.746Z,77.50
2018-07-04T02:45:28.297Z,78.45
2018-07-04T02:46:28.855Z,78.27
2018-07-04T02:47:29.404Z,78.36
2018-07-04T02:48:29.955Z,78.36
2018-07-04T02:49:30.507Z,79.13
2018-07-04T02:50:31.060Z,79.80
2018-07-04T02:51:31.612Z,80.38
2018-07-04T02:52:32.164Z,80.28
2018-07-04T02:53:32.711Z,80.96
2018-07-04T02:54:33.267Z,80.28
2018-07-04T02:55:33.817Z,80.09
2018-07-04T02:56:34.364Z,80.19
2018-07-04T02:57:34.923Z,80.19
2018-07-04T02:58:35.474Z,80.96
2018-07-04T02:59:36.023Z,81.63
2018-07-04T03:00:36.577Z,81.34
2018-07-04T03:01:37.134Z,81.72
2018-07-04T03:02:37.684Z,81.34
2018-07-04T03:03:38.235Z,81.43
2018-07-04T03:04:38.787Z,81.05
2018-07-04T03:05:39.339Z,81.10
2018-07-04T03:06:39.892Z,80.96
2018-07-04T03:07:40.439Z,81.49
2018-07-04T03:08:40.988Z,81.68
2018-07-04T03:09:41.537Z,82.16
2018-07-04T03:10:42.087Z,82.07
2018-07-04T03:11:42.641Z,81.59
2018-07-04T03:12:43.194Z,81.40
2018-07-04T03:13:43.743Z,81.87
2018-07-04T03:14:44.296Z,82.26
2018-07-04T03:15:44.846Z,81.40
2018-07-04T03:16:45.398Z,81.49
2018-07-04T03:17:45.952Z,82.26
2018-07-04T03:18:46.506Z,82.07
2018-07-04T03:19:47.058Z,82.16
2018-07-04T03:20:47.609Z,82.64
2018-07-04T03:21:48.162Z,82.45
2018-07-04T03:22:48.712Z,82.64
2018-07-04T03:23:49.263Z,82.84
2018-07-04T03:24:49.818Z,83.12
2018-07-04T03:25:50.380Z,83.22
2018-07-04T03:26:50.928Z,83.51
2018-07-04T03:27:51.481Z,83.03
2018-07-04T03:28:52.034Z,83.51
2018-07-04T03:29:52.591Z,83.70
2018-07-04T03:30:53.142Z,83.60
2018-07-04T03:31:53.707Z,83.60
2018-07-04T03:32:54.265Z,83.80
2018-07-04T03:33:54.799Z,83.80
2018-07-04T03:34:55.344Z,84.08
2018-07-04T03:35:55.897Z,84.66
2018-07-04T03:36:56.450Z,84.56
2018-07-04T03:37:57.005Z,84.75
2018-07-04T03:38:57.561Z,85.42
2018-07-04T03:39:58.119Z,85.14
2018-07-04T03:40:58.679Z,85.14
2018-07-04T03:41:59.231Z,85.14
2018-07-04T03:42:59.789Z,85.14
2018-07-04T03:44:00.345Z,85.24
2018-07-04T03:45:00.900Z,85.14
2018-07-04T03:46:01.456Z,85.24
2018-07-04T03:47:02.051Z,85.04
2018-07-04T03:48:02.621Z,85.14
2018-07-04T03:49:03.208Z,85.42
2018-07-04T03:50:03.777Z,85.24
2018-07-04T03:51:04.347Z,85.24
2018-07-04T03:52:04.927Z,85.52
2018-07-04T03:53:05.500Z,85.14
2018-07-04T03:54:06.053Z,85.04
2018-07-04T03:55:06.608Z,85.42
2018-07-04T03:56:07.157Z,85.14
2018-07-04T03:57:07.724Z,85.52
2018-07-04T03:58:08.346Z,85.24
2018-07-04T03:59:08.843Z,84.95
2018-07-04T04:00:09.418Z,84.85
2018-07-04T04:01:09.972Z,85.24
2018-07-04T04:02:10.533Z,85.33
2018-07-04T04:03:11.092Z,85.24
2018-07-04T04:04:11.646Z,85.24
2018-07-04T04:05:12.198Z,85.14
2018-07-04T04:06:12.753Z,85.14
2018-07-04T04:07:13.315Z,85.24
2018-07-04T04:08:13.880Z,85.33
2018-07-04T04:09:14.436Z,85.24
2018-07-04T04:10:14.986Z,84.75
2018-07-04T04:11:15.544Z,85.04
2018-07-04T04:12:16.108Z,85.04
2018-07-04T04:13:16.687Z,85.04
2018-07-04T04:14:17.245Z,85.24
2018-07-04T04:15:17.846Z,85.33
2018-07-04T04:16:18.388Z,85.04
2018-07-04T04:17:18.957Z,85.42
2018-07-04T04:18:19.510Z,85.33
2018-07-04T04:19:20.067Z,85.33
2018-07-04T04:20:20.644Z,85.52
2018-07-04T04:21:21.228Z,85.24
2018-07-04T04:22:21.824Z,85.62
2018-07-04T04:23:22.389Z,85.14
2018-07-04T04:24:22.947Z,85.24
2018-07-04T04:25:23.516Z,85.81
2018-07-04T04:26:24.093Z,85.33
2018-07-04T04:27:24.673Z,85.42
2018-07-04T04:28:25.230Z,85.42
2018-07-04T04:29:25.791Z,85.42
2018-07-04T04:30:26.346Z,85.14
2018-07-04T04:31:26.906Z,85.04
2018-07-04T04:32:27.460Z,85.14
2018-07-04T04:33:28.014Z,85.14
2018-07-04T04:34:28.568Z,85.14
2018-07-04T04:35:29.126Z,85.42
2018-07-04T04:36:29.679Z,85.24
2018-07-04T04:37:30.230Z,85.81
2018-07-04T04:38:30.788Z,85.24
2018-07-04T04:39:31.342Z,84.56
2018-07-04T04:40:31.897Z,84.47
2018-07-04T04:41:32.457Z,84.37
2018-07-04T04:42:33.016Z,84.66
2018-07-04T04:43:33.575Z,84.95
2018-07-04T04:44:34.192Z,84.56
2018-07-04T04:45:34.785Z,84.37
2018-07-04T04:46:35.337Z,84.08
2018-07-04T04:47:35.913Z,84.18
2018-07-04T04:48:36.454Z,84.56
2018-07-04T04:49:37.015Z,84.99
2018-07-04T04:50:37.572Z,84.41
2018-07-04T04:51:38.124Z,84.31
2018-07-04T04:52:38.679Z,84.51
2018-07-04T04:53:39.236Z,84.60
2018-07-04T04:54:39.838Z,84.41
2018-07-04T04:55:40.347Z,84.70
2018-07-04T04:56:40.903Z,84.60
2018-07-04T04:57:41.454Z,85.18
2018-07-04T04:58:42.030Z,84.94
2018-07-04T04:59:42.586Z,82.82
2018-07-04T05:00:43.139Z,82.43
2018-07-04T05:01:43.703Z,82.38
2018-07-04T05:02:44.261Z,81.75
2018-07-04T05:03:44.819Z,81.17
2018-07-04T05:04:45.385Z,80.54
2018-07-04T05:05:45.949Z,79.86
2018-07-04T05:06:46.510Z,79.48
2018-07-04T05:07:47.073Z,78.46
2018-07-04T05:08:47.634Z,77.25
2018-07-04T05:09:48.192Z,76.03
2018-07-04T05:10:48.751Z,75.30
2018-07-04T05:11:49.318Z,74.08
2018-07-04T05:12:49.877Z,73.31
2018-07-04T05:13:50.440Z,72.09
2018-07-04T05:14:51.010Z,72.09
2018-07-04T05:15:51.565Z,71.74
2018-07-04T05:16:52.119Z,71.06
2018-07-04T05:17:52.683Z,71.55
2018-07-04T05:18:53.251Z,71.45
2018-07-04T05:19:53.820Z,71.30
2018-07-04T05:20:54.420Z,70.72
2018-07-04T05:21:54.968Z,69.46
2018-07-04T05:22:55.529Z,69.07
2018-07-04T05:23:56.094Z,68.49
2018-07-04T05:24:56.655Z,68.75
2018-07-04T05:25:57.218Z,69.13
2018-07-04T05:26:57.786Z,69.68
2018-07-04T05:27:58.349Z,70.16
2018-07-04T05:28:58.918Z,70.45
2018-07-04T05:29:59.482Z,70.36
2018-07-04T05:31:00.046Z,69.68
2018-07-04T05:32:00.607Z,70.54
2018-07-04T05:33:01.196Z,71.03
2018-07-04T05:34:01.725Z,71.80
2018-07-04T05:35:02.346Z,71.70
2018-07-04T05:36:02.854Z,71.94
2018-07-04T05:37:03.417Z,71.84
2018-07-04T05:38:03.980Z,71.64
2018-07-04T05:39:04.560Z,71.30
2018-07-04T05:40:05.122Z,70.52
2018-07-04T05:41:05.685Z,69.74
2018-07-04T05:42:06.248Z,69.36
2018-07-04T05:43:06.815Z,68.49
2018-07-04T05:44:07.381Z,67.75
2018-07-04T05:45:07.942Z,67.01
2018-07-04T05:46:08.511Z,65.59
2018-07-04T05:47:09.074Z,64.27
2018-07-04T05:48:09.635Z,63.89
2018-07-04T05:49:10.198Z,63.04
2018-07-04T05:50:10.761Z,62.37
2018-07-04T05:51:11.376Z,62.37
2018-07-04T05:52:11.913Z,61.88
2018-07-04T05:53:12.485Z,62.01
2018-07-04T05:54:13.049Z,61.30
2018-07-04T05:55:13.619Z,62.69
2018-07-04T05:56:14.189Z,62.01
2018-07-04T05:57:14.759Z,62.10
2018-07-04T05:58:15.319Z,62.20
2018-07-04T05:59:15.892Z,62.40
2018-07-04T06:00:16.455Z,61.65
2018-07-04T06:01:17.023Z,60.88
2018-07-04T06:02:17.599Z,61.17
2018-07-04T06:03:18.164Z,61.94
2018-07-04T06:04:18.732Z,61.98
2018-07-04T06:05:19.296Z,61.78
2018-07-04T06:06:19.865Z,61.58
2018-07-04T06:07:20.430Z,61.78
2018-07-04T06:08:20.998Z,60.52
2018-07-04T06:09:21.563Z,60.03
2018-07-04T06:10:22.127Z,60.49
2018-07-04T06:11:22.693Z,60.49
2018-07-04T06:12:23.284Z,60.46
2018-07-04T06:13:23.828Z,60.94
2018-07-04T06:14:24.394Z,61.04
2018-07-04T06:15:24.960Z,61.43
2018-07-04T06:16:25.557Z,61.43
2018-07-04T06:17:26.099Z,62.27
2018-07-04T06:18:26.669Z,63.14
2018-07-04T06:19:27.250Z,63.92
2018-07-04T06:20:27.820Z,64.20
2018-07-04T06:21:28.386Z,64.40
2018-07-04T06:22:28.980Z,64.24
2018-07-04T06:23:29.514Z,63.17
2018-07-04T06:24:30.084Z,62.49
2018-07-04T06:25:30.647Z,62.01
2018-07-04T06:26:31.215Z,61.59
2018-07-04T06:27:31.783Z,61.01
2018-07-04T06:28:32.353Z,60.52
2018-07-04T06:29:32.925Z,60.75
2018-07-04T06:30:33.487Z,60.65
2018-07-04T06:31:34.055Z,60.75
2018-07-04T06:32:34.622Z,60.46
2018-07-04T06:33:35.185Z,61.62
2018-07-04T06:34:35.751Z,60.94
2018-07-04T06:35:36.362Z,61.62
2018-07-04T06:36:36.912Z,62.01
2018-07-04T06:37:37.488Z,62.98
2018-07-04T06:38:38.042Z,63.56
2018-07-04T06:39:38.643Z,63.78
2018-07-04T06:40:39.227Z,63.91
2018-07-04T06:41:39.813Z,62.78
2018-07-04T06:42:40.365Z,61.65
2018-07-04T06:43:40.933Z,60.87
2018-07-04T06:44:41.499Z,59.54
2018-07-04T06:45:42.068Z,58.69
2018-07-04T06:46:42.638Z,57.56
2018-07-04T06:47:43.289Z,56.41
2018-07-04T06:48:43.781Z,55.86
2018-07-04T06:49:44.362Z,55.01
2018-07-04T06:50:44.932Z,55.01
2018-07-04T06:51:45.505Z,55.30
2018-07-04T06:52:46.076Z,55.33
2018-07-04T06:53:46.646Z,54.28
2018-07-04T06:54:47.219Z,53.99
2018-07-04T06:55:47.785Z,54.28
2018-07-04T06:56:48.357Z,54.48
2018-07-04T06:57:48.923Z,54.85
2018-07-04T06:58:49.543Z,55.52
2018-07-04T06:59:50.077Z,55.30
2018-07-04T07:00:50.645Z,55.69
2018-07-04T07:01:51.264Z,55.69
2018-07-04T07:02:51.873Z,55.13
2018-07-04T07:03:52.514Z,54.68
2018-07-04T07:04:53.091Z,54.21
2018-07-04T07:05:53.660Z,52.29
2018-07-04T07:06:54.231Z,52.46
2018-07-04T07:07:54.818Z,52.92
2018-07-04T07:08:55.384Z,53.60
2018-07-04T07:09:55.950Z,53.60
2018-07-04T07:10:56.519Z,53.14
2018-07-04T07:11:57.096Z,53.14
2018-07-04T07:12:57.665Z,53.34
2018-07-04T07:13:58.227Z,52.97
2018-07-04T07:14:58.800Z,53.17
2018-07-04T07:15:59.370Z,53.83
2018-07-04T07:16:59.946Z,54.21
2018-07-04T07:18:00.541Z,54.28
2018-07-04T07:19:01.107Z,53.80
2018-07-04T07:20:01.684Z,54.16
2018-07-04T07:21:02.294Z,54.16
2018-07-04T07:22:02.834Z,54.65
2018-07-04T07:23:03.402Z,54.09
2018-07-04T07:24:03.963Z,53.50
2018-07-04T07:25:04.552Z,53.70
2018-07-04T07:26:05.189Z,54.09
2018-07-04T07:27:05.775Z,53.87
2018-07-04T07:28:06.386Z,53.97
2018-07-04T07:29:07.046Z,53.94
2018-07-04T07:30:07.657Z,53.85
2018-07-04T07:31:08.221Z,54.21
2018-07-04T07:32:08.912Z,54.23
2018-07-04T07:33:09.484Z,54.62
2018-07-04T07:34:10.070Z,54.65
2018-07-04T07:35:10.683Z,54.36
2018-07-04T07:36:11.249Z,53.70
2018-07-04T07:37:11.863Z,53.41
2018-07-04T07:38:12.474Z,52.66
2018-07-04T07:39:13.066Z,52.31
2018-07-04T07:40:13.760Z,51.27
2018-07-04T07:41:14.455Z,50.90
2018-07-04T07:42:15.052Z,50.54
2018-07-04T07:43:15.636Z,49.19
2018-07-04T07:44:16.213Z,48.53
2018-07-04T07:45:16.788Z,48.53
2018-07-04T07:46:17.397Z,47.75
2018-07-04T07:47:17.947Z,47.75
2018-07-04T07:48:18.526Z,48.04
2018-07-04T07:49:19.109Z,47.20
2018-07-04T07:50:19.684Z,47.11
2018-07-04T07:51:20.247Z,46.56
2018-07-04T07:52:20.827Z,46.27
2018-07-04T07:53:21.409Z,46.30
2018-07-04T07:54:22.026Z,45.90
2018-07-04T07:55:22.557Z,45.24
2018-07-04T07:56:23.141Z,46.00
2018-07-04T07:57:23.719Z,45.51
2018-07-04T07:58:24.297Z,45.41
2018-07-04T07:59:24.882Z,45.80
2018-07-04T08:00:25.460Z,45.51
2018-07-04T08:01:26.036Z,45.43
2018-07-04T08:02:26.616Z,45.41
2018-07-04T08:03:27.193Z,45.02
2018-07-04T08:04:27.783Z,44.73
2018-07-04T08:05:28.352Z,45.31
2018-07-04T08:06:28.973Z,45.51
2018-07-04T08:07:29.611Z,45.31
2018-07-04T08:08:30.197Z,45.80
2018-07-04T08:09:30.795Z,45.70
2018-07-04T08:10:31.371Z,45.63
2018-07-04T08:11:31.949Z,45.24
2018-07-04T08:12:32.528Z,45.26
2018-07-04T08:13:33.110Z,45.55
2018-07-04T08:14:33.712Z,45.85
2018-07-04T08:15:34.336Z,45.36
2018-07-04T08:16:34.914Z,45.38
2018-07-04T08:17:35.508Z,44.77
2018-07-04T08:18:36.079Z,44.59
2018-07-04T08:19:36.731Z,44.62
2018-07-04T08:20:37.427Z,45.18
2018-07-04T08:21:37.964Z,45.83
2018-07-04T08:22:38.588Z,45.43
2018-07-04T08:23:39.139Z,45.43
2018-07-04T08:24:39.719Z,45.90
2018-07-04T08:25:40.299Z,46.59
2018-07-04T08:26:40.883Z,46.44
2018-07-04T08:27:41.463Z,47.30
2018-07-04T08:28:42.106Z,48.75
2018-07-04T08:29:42.702Z,49.33
2018-07-04T08:30:43.274Z,49.41
2018-07-04T08:31:43.846Z,49.29
2018-07-04T08:32:44.444Z,49.85
2018-07-04T08:33:45.070Z,50.73
2018-07-04T08:34:45.682Z,51.98
2018-07-04T08:35:46.282Z,51.95
2018-07-04T08:36:46.920Z,52.02
2018-07-04T08:37:47.471Z,52.51
2018-07-04T08:38:48.097Z,53.49
2018-07-04T08:39:48.633Z,53.46
2018-07-04T08:40:49.249Z,53.07
2018-07-04T08:41:49.921Z,53.85
2018-07-04T08:42:50.612Z,53.75
2018-07-04T08:43:51.224Z,54.41
2018-07-04T08:44:51.917Z,55.07
2018-07-04T08:45:52.473Z,55.16
2018-07-04T08:46:53.031Z,55.36
2018-07-04T08:47:53.616Z,55.85
2018-07-04T08:48:54.197Z,57.09
2018-07-04T08:49:54.783Z,57.86
2018-07-04T08:50:55.437Z,59.20
2018-07-04T08:51:56.065Z,59.95
2018-07-04T08:52:56.645Z,59.95
2018-07-04T08:53:57.235Z,61.02
2018-07-04T08:54:57.800Z,61.87
2018-07-04T08:55:58.358Z,63.23
2018-07-04T08:56:58.939Z,66.40
2018-07-04T08:57:59.511Z,68.48
2018-07-04T08:59:00.081Z,71.36
2018-07-04T09:00:00.637Z,75.49
2018-07-04T09:01:01.218Z,77.69
2018-07-04T09:02:01.827Z,79.68
2018-07-04T09:03:02.398Z,81.10
2018-07-04T09:04:02.981Z,82.55
2018-07-04T09:05:03.548Z,84.25
2018-07-04T09:06:04.113Z,85.28
2018-07-04T09:07:04.677Z,86.88
2018-07-04T09:08:05.240Z,88.48
2018-07-04T09:09:05.818Z,90.03
2018-07-04T09:10:06.373Z,90.75
2018-07-04T09:11:06.941Z,92.25
2018-07-04T09:12:07.513Z,93.13
2018-07-04T09:13:08.085Z,95.68
2018-07-04T09:14:08.646Z,96.84
2018-07-04T09:15:09.218Z,97.77
2018-07-04T09:16:09.793Z,98.83
2018-07-04T09:17:10.386Z,99.99
2018-07-04T09:18:10.916Z,99.99
2018-07-04T09:19:11.474Z,99.99
2018-07-04T09:20:12.065Z,99.99
2018-07-04T09:21:12.602Z,99.99
2018-07-04T09:22:13.171Z,99.99
2018-07-04T09:23:13.731Z,99.99
2018-07-04T09:24:14.297Z,99.99
2018-07-04T09:25:14.864Z,99.99
2018-07-04T09:26:15.441Z,99.99
2018-07-04T09:27:16.012Z,99.99
2018-07-04T09:28:16.579Z,99.99
2018-07-04T09:29:17.142Z,99.99
2018-07-04T09:30:17.710Z,99.99
2018-07-04T09:31:18.284Z,99.99
2018-07-04T09:32:18.842Z,99.99
2018-07-04T09:33:19.413Z,99.99
2018-07-04T09:34:19.978Z,99.99
2018-07-04T09:35:20.546Z,99.99
2018-07-04T09:36:21.117Z,99.99
2018-07-04T09:37:21.714Z,99.99
2018-07-04T09:38:22.285Z,99.99
2018-07-04T09:39:22.862Z,99.99
2018-07-04T09:40:23.433Z,99.99
2018-07-04T09:41:24.032Z,99.99
2018-07-04T09:42:24.598Z,99.99
2018-07-04T09:43:25.176Z,99.99
2018-07-04T09:44:25.776Z,99.99
2018-07-04T09:45:26.418Z,99.12
2018-07-04T09:46:27.021Z,98.78
2018-07-04T09:47:27.591Z,97.23
2018-07-04T09:48:28.173Z,96.98
2018-07-04T09:49:28.728Z,93.26
2018-07-04T09:50:29.355Z,92.38
2018-07-04T09:51:29.923Z,93.98
2018-07-04T09:52:30.510Z,92.33
2018-07-04T09:53:31.073Z,90.34
2018-07-04T09:54:31.640Z,89.66
2018-07-04T09:55:32.215Z,88.59
2018-07-04T09:56:32.796Z,87.96
2018-07-04T09:57:33.363Z,88.24
2018-07-04T09:58:33.941Z,88.58
2018-07-04T09:59:34.492Z,88.68
2018-07-04T10:00:35.065Z,87.65
2018-07-04T10:01:35.686Z,85.03
2018-07-04T10:02:36.260Z,84.64
2018-07-04T10:03:36.835Z,84.30
2018-07-04T10:04:37.414Z,83.91
2018-07-04T10:05:38.017Z,83.56
2018-07-04T10:06:38.579Z,82.62
2018-07-04T10:07:39.154Z,79.80
2018-07-04T10:08:39.736Z,78.19
2018-07-04T10:09:40.314Z,76.67
2018-07-04T10:10:40.895Z,74.95
2018-07-04T10:11:41.482Z,74.07
2018-07-04T10:12:42.095Z,72.55
2018-07-04T10:13:42.634Z,70.86
2018-07-04T10:14:43.216Z,72.25
2018-07-04T10:15:43.792Z,72.88
2018-07-04T10:16:44.379Z,72.81
2018-07-04T10:17:44.954Z,70.70
2018-07-04T10:18:45.530Z,69.53
2018-07-04T10:19:46.123Z,68.59
2018-07-04T10:20:46.712Z,67.25
2018-07-04T10:21:47.286Z,69.63
2018-07-04T10:22:47.860Z,66.60
2018-07-04T10:23:48.505Z,69.04
2018-07-04T10:24:49.043Z,68.36
2018-07-04T10:25:49.630Z,67.41
2018-07-04T10:26:50.223Z,63.86
2018-07-04T10:27:50.803Z,64.12
2018-07-04T10:28:51.512Z,65.23
2018-07-04T10:29:52.367Z,64.64
2018-07-04T10:30:53.013Z,62.56
2018-07-04T10:31:53.660Z,61.97
2018-07-04T10:32:54.267Z,63.05
2018-07-04T10:33:54.952Z,64.32
2018-07-04T10:34:55.560Z,64.25
2018-07-04T10:35:56.220Z,62.79
2018-07-04T10:36:57.840Z,61.61
2018-07-04T10:37:58.434Z,63.31
2018-07-04T10:38:59.056Z,63.11
2018-07-04T10:39:59.660Z,61.35
2018-07-04T10:41:00.694Z,61.44
2018-07-04T10:42:01.388Z,62.16
2018-07-04T10:43:01.970Z,61.57
2018-07-04T10:44:02.571Z,61.99
2018-07-04T10:45:03.188Z,60.03
2018-07-04T10:46:03.771Z,61.41
2018-07-04T10:47:04.369Z,60.42
2018-07-04T10:48:04.933Z,61.11
2018-07-04T10:49:05.511Z,61.24
2018-07-04T10:50:06.100Z,60.95
2018-07-04T10:51:06.672Z,58.69
2018-07-04T10:52:07.481Z,59.90
2018-07-04T10:53:08.051Z,59.90
2018-07-04T10:54:08.706Z,58.53
2018-07-04T10:55:09.275Z,57.93
2018-07-04T10:56:09.877Z,57.45
2018-07-04T10:57:10.454Z,56.73
2018-07-04T10:58:11.028Z,58.01
2018-07-04T10:59:11.616Z,57.15
2018-07-04T11:00:12.203Z,56.67
2018-07-04T11:01:12.789Z,56.76
2018-07-04T11:02:13.364Z,55.98
2018-07-04T11:03:13.960Z,54.50
2018-07-04T11:04:14.559Z,54.80
2018-07-04T11:05:15.242Z,54.60
2018-07-04T11:06:15.939Z,55.41
2018-07-04T11:07:16.648Z,54.44
2018-07-04T11:08:17.296Z,54.17
2018-07-04T11:09:17.872Z,55.24
2018-07-04T11:10:18.473Z,56.35
2018-07-04T11:11:19.078Z,54.00
2018-07-04T11:12:19.673Z,53.02
2018-07-04T11:13:20.328Z,53.60
2018-07-04T11:14:21.016Z,53.60
2018-07-04T11:15:21.576Z,53.53
2018-07-04T11:16:22.144Z,53.04
2018-07-04T11:17:22.770Z,53.23
2018-07-04T11:18:23.377Z,54.52
2018-07-04T11:19:23.948Z,55.60
2018-07-04T11:20:24.565Z,55.47
2018-07-04T11:21:25.108Z,54.07
2018-07-04T11:22:25.729Z,54.27
2018-07-04T11:23:26.289Z,54.66
2018-07-04T11:24:26.885Z,56.69
2018-07-04T11:25:27.454Z,56.88
2018-07-04T11:26:28.050Z,56.47
2018-07-04T11:27:28.654Z,58.04
2018-07-04T11:28:29.268Z,57.54
2018-07-04T11:29:29.870Z,55.85
2018-07-04T11:30:30.486Z,56.63
2018-07-04T11:31:31.033Z,58.79
2018-07-04T11:32:31.599Z,59.19
2018-07-04T11:33:32.173Z,58.67
2018-07-04T11:34:32.765Z,58.07
2018-07-04T11:35:33.391Z,59.29
2018-07-04T11:36:33.963Z,61.35
2018-07-04T11:37:34.538Z,64.09
2018-07-04T11:38:35.159Z,62.00
2018-07-04T11:39:35.763Z,59.82
2018-07-04T11:40:36.330Z,60.99
2018-07-04T11:41:36.904Z,60.11
2018-07-04T11:42:37.533Z,59.20
2018-07-04T11:43:38.120Z,62.13
2018-07-04T11:44:38.703Z,62.01
2018-07-04T11:45:39.270Z,63.38
2018-07-04T11:46:39.862Z,64.22
2018-07-04T11:47:40.439Z,64.22
2018-07-04T11:48:41.016Z,64.51
2018-07-04T11:49:41.590Z,64.42
2018-07-04T11:50:42.176Z,64.78
2018-07-04T11:51:42.761Z,64.97
2018-07-04T11:52:43.338Z,65.17
2018-07-04T11:53:43.903Z,65.04
2018-07-04T11:54:44.496Z,65.92
2018-07-04T11:55:45.077Z,66.50
2018-07-04T11:56:45.661Z,67.67
2018-07-04T11:57:46.285Z,67.15
2018-07-04T11:58:46.882Z,67.50
2018-07-04T11:59:47.443Z,67.41
2018-07-04T12:00:48.023Z,68.38
2018-07-04T12:01:48.641Z,69.81
2018-07-04T12:02:49.240Z,69.52
2018-07-04T12:03:49.750Z,69.42
2018-07-04T12:04:50.330Z,69.03
2018-07-04T12:05:50.927Z,69.52
2018-07-04T12:06:51.491Z,70.20
2018-07-04T12:07:52.076Z,69.91
2018-07-04T12:08:52.637Z,70.36
2018-07-04T12:09:53.217Z,70.56
2018-07-04T12:10:53.809Z,71.50
2018-07-04T12:11:54.362Z,71.50
2018-07-04T12:12:54.945Z,71.88
2018-07-04T12:13:55.527Z,71.59
2018-07-04T12:14:56.093Z,71.59
2018-07-04T12:15:56.675Z,71.98
2018-07-04T12:16:57.232Z,72.33
2018-07-04T12:17:57.809Z,72.17
2018-07-04T12:18:58.381Z,72.27
2018-07-04T12:19:59.020Z,71.98
2018-07-04T12:20:59.632Z,71.75
2018-07-04T12:22:00.175Z,71.98
2018-07-04T12:23:00.757Z,72.56
2018-07-04T12:24:01.543Z,72.43
2018-07-04T12:25:02.108Z,72.43
2018-07-04T12:26:02.693Z,72.43
2018-07-04T12:27:03.313Z,73.30
2018-07-04T12:28:03.830Z,73.24
2018-07-04T12:29:04.407Z,72.76
2018-07-04T12:30:05.001Z,72.37
2018-07-04T12:31:05.587Z,72.96
2018-07-04T12:32:06.236Z,74.12
2018-07-04T12:33:06.759Z,73.83
2018-07-04T12:34:07.333Z,73.73
2018-07-04T12:35:07.918Z,73.54
2018-07-04T12:36:08.547Z,73.63
2018-07-04T12:37:09.160Z,74.51
2018-07-04T12:38:09.731Z,74.12
2018-07-04T12:39:10.301Z,74.61
2018-07-04T12:40:10.869Z,73.34
2018-07-04T12:41:11.443Z,72.86
2018-07-04T12:42:12.025Z,73.44
2018-07-04T12:43:12.590Z,73.44
2018-07-04T12:44:13.162Z,74.90
2018-07-04T12:45:13.722Z,74.93
2018-07-04T12:46:14.303Z,75.42
2018-07-04T12:47:14.916Z,72.99
2018-07-04T12:48:15.488Z,74.16
2018-07-04T12:49:16.091Z,75.13
2018-07-04T12:50:16.669Z,76.01
2018-07-04T12:51:17.260Z,72.99
2018-07-04T12:52:17.822Z,75.23
2018-07-04T12:53:18.415Z,74.35
2018-07-04T12:54:19.157Z,74.65
2018-07-04T12:55:19.558Z,74.84
2018-07-04T12:56:20.135Z,73.90
2018-07-04T12:57:20.718Z,72.50
2018-07-04T12:58:21.299Z,73.41
2018-07-04T12:59:21.902Z,71.95
2018-07-04T13:00:22.474Z,72.83